Terminal Aerodrome Forecast
Issued by NWS

Home | Current Version | Previous Version | Text Only | Print | Product List | Glossary On
Versions: 1 2 3 4 5 6 7 8 9 10 11 12 13
000
FTUS44 KLZK 031700
TAFBPK
TAF
KBPK 031739Z 0318/0418 18010KT P6SM SCT050
     FM040100 16004KT P6SM BKN150
     FM041500 19007KT P6SM SCT250=

USA.gov is the U.S. government's official web portal to all federal, state and local government web resources and services.